Time;durP1;ratioP1;P1;durP2;ratioP2;P2;SDS_P1;SDS_P2;PMS_P1;PMS_P2;Temp;Humidity;BMP_temperature;BMP_pressure;BME280_temperature;BME280_humidity;BME280_pressure;Samples;Min_cycle;Max_cycle;Signal;HPM_P1;HPM_P2
2023/12/16 00:02:11;;;;;;;2.30;1.50;;;;;;;4.68;100.00;101624.09;5092923;28;20693;-76
2023/12/16 00:04:38;;;;;;;0.80;0.80;;;;;;;4.61;100.00;101610.78;5093193;28;20272;-77
2023/12/16 00:07:06;;;;;;;0.80;0.80;;;;;;;4.88;100.00;101618.56;5092917;28;20582;-77
2023/12/16 00:09:32;;;;;;;0.80;0.80;;;;;;;4.44;100.00;101600.34;5073756;28;20198;-77
2023/12/16 00:11:59;;;;;;;1.07;1.03;;;;;;;4.65;100.00;101616.22;5092581;28;20222;-77
2023/12/16 00:14:26;;;;;;;1.10;1.10;;;;;;;4.58;100.00;101620.84;5103640;28;20601;-77
2023/12/16 00:16:53;;;;;;;0.97;0.97;;;;;;;4.60;100.00;101624.44;5098721;28;20583;-77
2023/12/16 00:19:19;;;;;;;0.80;0.80;;;;;;;4.60;100.00;101629.56;5092748;28;20583;-77
2023/12/16 00:21:46;;;;;;;1.17;1.17;;;;;;;4.65;100.00;101628.16;5091862;28;20281;-78
2023/12/16 00:24:14;;;;;;;0.70;0.70;;;;;;;4.44;100.00;101592.63;5103584;28;20205;-78
2023/12/16 00:26:41;;;;;;;7.30;1.57;;;;;;;4.63;100.00;101633.22;5100688;28;20201;-77
2023/12/16 00:29:08;;;;;;;1.50;1.40;;;;;;;4.48;100.00;101611.69;5092402;28;20221;-77
2023/12/16 00:31:35;;;;;;;0.90;0.90;;;;;;;4.65;100.00;101638.44;5082613;28;20637;-76
2023/12/16 00:34:01;;;;;;;3.40;1.57;;;;;;;4.61;100.00;101639.03;5092257;28;20727;-78
2023/12/16 00:36:28;;;;;;;0.80;0.80;;;;;;;4.44;100.00;101610.63;5092155;28;20198;-77
2023/12/16 00:38:55;;;;;;;1.00;1.00;;;;;;;4.62;100.00;101653.66;5092416;28;20206;-78
2023/12/16 00:41:23;;;;;;;0.97;0.97;;;;;;;4.63;100.00;101633.22;5104327;28;20197;-78
2023/12/16 00:43:50;;;;;;;0.70;0.70;;;;;;;4.73;100.00;101652.66;5092096;28;20641;-76
2023/12/16 00:46:16;;;;;;;4.73;4.27;;;;;;;4.50;100.00;101662.34;5092168;28;20235;-77
2023/12/16 00:48:44;;;;;;;2.27;2.07;;;;;;;4.53;100.00;101668.50;5092115;28;20194;-76
2023/12/16 00:51:10;;;;;;;1.00;1.00;;;;;;;4.49;100.00;101670.84;5073051;28;20199;-76
2023/12/16 00:53:37;;;;;;;0.73;0.73;;;;;;;4.64;100.00;101667.50;5111622;28;20225;-77
2023/12/16 00:56:05;;;;;;;1.00;1.00;;;;;;;4.41;100.00;101661.78;5080431;28;20198;-77
2023/12/16 00:58:33;;;;;;;0.70;0.70;;;;;;;4.48;100.00;101666.53;5092144;28;20735;-76
2023/12/16 01:01:00;;;;;;;0.80;0.80;;;;;;;4.53;100.00;101650.53;5091967;28;20735;-78
2023/12/16 01:03:27;;;;;;;0.80;0.80;;;;;;;4.58;100.00;101646.53;5055934;28;20209;-76
2023/12/16 01:05:54;;;;;;;0.90;0.90;;;;;;;4.61;100.00;101662.16;5091137;28;20194;-76
2023/12/16 01:08:20;;;;;;;1.97;1.87;;;;;;;4.64;100.00;101664.94;5092298;28;20678;-77
2023/12/16 01:10:47;;;;;;;1.10;1.10;;;;;;;4.54;100.00;101676.28;5093328;28;20198;-76
2023/12/16 01:13:14;;;;;;;0.90;0.90;;;;;;;4.60;100.00;101675.81;5091873;28;20217;-77
2023/12/16 01:15:42;;;;;;;0.70;0.70;;;;;;;4.63;100.00;101668.28;5091892;28;20224;-76
2023/12/16 01:18:09;;;;;;;0.90;0.90;;;;;;;4.45;100.00;101643.22;5092016;28;20229;-77
2023/12/16 01:20:36;;;;;;;0.93;0.93;;;;;;;4.63;100.00;101684.59;5092413;28;20670;-77
2023/12/16 01:23:03;;;;;;;1.20;1.20;;;;;;;4.59;100.00;101680.06;5087504;28;20651;-77
2023/12/16 01:25:29;;;;;;;0.73;0.73;;;;;;;4.61;100.00;101683.59;5111807;28;20551;-77
2023/12/16 01:27:56;;;;;;;0.60;0.60;;;;;;;4.60;100.00;101681.84;5092868;28;20202;-75
2023/12/16 01:30:24;;;;;;;0.87;0.87;;;;;;;4.39;100.00;101657.31;5089887;28;20723;-75
2023/12/16 01:32:52;;;;;;;0.60;0.60;;;;;;;4.72;100.00;101674.00;5090841;28;20241;-77
2023/12/16 01:35:19;;;;;;;1.17;1.17;;;;;;;4.69;100.00;101681.53;5055419;28;20213;-77
2023/12/16 01:37:47;;;;;;;0.80;0.80;;;;;;;4.62;100.00;101684.50;5081515;28;20198;-78
2023/12/16 01:40:14;;;;;;;0.77;0.77;;;;;;;4.66;100.00;101660.78;5090918;28;20210;-77
2023/12/16 01:42:40;;;;;;;0.70;0.70;;;;;;;4.70;100.00;101684.19;5090857;28;20685;-77
2023/12/16 01:45:09;;;;;;;0.80;0.80;;;;;;;4.70;100.00;101686.78;5090770;28;20209;-77
2023/12/16 01:47:37;;;;;;;0.77;0.77;;;;;;;4.61;100.00;101662.16;5088456;28;20684;-77
2023/12/16 01:50:06;;;;;;;0.70;0.70;;;;;;;4.63;100.00;101676.88;5073137;28;20335;-78
2023/12/16 01:52:33;;;;;;;0.90;0.90;;;;;;;4.60;100.00;101671.56;5100376;28;20335;-78
2023/12/16 01:55:00;;;;;;;0.80;0.80;;;;;;;4.60;100.00;101691.22;5090809;28;20681;-77
2023/12/16 01:57:27;;;;;;;0.70;0.70;;;;;;;4.55;100.00;101674.59;5090949;28;20267;-77
2023/12/16 01:59:54;;;;;;;0.80;0.80;;;;;;;4.49;100.00;101693.97;5090358;28;20620;-77
2023/12/16 02:02:22;;;;;;;1.23;1.23;;;;;;;4.53;100.00;101689.03;5099218;28;20199;-73
2023/12/16 02:04:49;;;;;;;0.73;0.73;;;;;;;4.53;100.00;101695.03;5088917;28;20202;-77
2023/12/16 02:07:17;;;;;;;0.90;0.90;;;;;;;4.59;100.00;101699.72;5090946;28;20666;-76
2023/12/16 02:09:44;;;;;;;0.90;0.90;;;;;;;4.47;100.00;101695.53;5090916;28;20267;-77
2023/12/16 02:12:11;;;;;;;0.90;0.90;;;;;;;4.53;100.00;101709.59;5090472;28;20202;-78
2023/12/16 02:14:37;;;;;;;0.90;0.90;;;;;;;4.43;100.00;101703.84;5090942;28;20209;-73
2023/12/16 02:17:04;;;;;;;0.70;0.70;;;;;;;4.43;100.00;101703.84;5093734;28;20666;-78
2023/12/16 02:19:32;;;;;;;3.17;1.87;;;;;;;4.52;100.00;101702.66;5090749;28;20547;-78
2023/12/16 02:21:59;;;;;;;0.90;0.90;;;;;;;4.39;100.00;101709.56;5090918;28;20213;-78
2023/12/16 02:24:28;;;;;;;0.90;0.90;;;;;;;4.26;100.00;101668.47;5090964;28;20651;-79
2023/12/16 02:26:56;;;;;;;1.07;1.07;;;;;;;4.50;100.00;101707.69;5090749;28;20747;-77
2023/12/16 02:29:23;;;;;;;0.80;0.80;;;;;;;4.32;100.00;101699.69;5111280;28;20574;-77
2023/12/16 02:31:50;;;;;;;1.10;1.10;;;;;;;4.45;100.00;101733.09;5105073;28;20569;-76
2023/12/16 02:34:17;;;;;;;0.80;0.80;;;;;;;4.47;100.00;101731.50;5111147;28;20593;-78
2023/12/16 02:36:43;;;;;;;0.90;0.90;;;;;;;4.54;100.00;101734.47;5102166;28;20621;-77
2023/12/16 02:39:10;;;;;;;0.80;0.80;;;;;;;4.41;100.00;101735.34;5090888;28;20680;-77
2023/12/16 02:41:38;;;;;;;0.80;0.80;;;;;;;4.59;100.00;101740.81;5090427;28;20209;-77
2023/12/16 02:44:05;;;;;;;0.70;0.70;;;;;;;4.57;100.00;101744.94;5090785;28;20673;-78
2023/12/16 02:46:32;;;;;;;0.90;0.90;;;;;;;4.50;100.00;101754.81;5038959;28;20190;-78
2023/12/16 02:48:59;;;;;;;0.90;0.90;;;;;;;4.60;100.00;101750.31;5091116;28;20198;-78
2023/12/16 02:51:25;;;;;;;0.80;0.80;;;;;;;4.46;100.00;101718.53;5103287;28;20190;-79
2023/12/16 02:53:53;;;;;;;0.77;0.77;;;;;;;4.67;100.00;101755.03;5090962;28;20251;-78
2023/12/16 02:56:19;;;;;;;0.70;0.70;;;;;;;4.73;100.00;101764.03;5085923;28;20201;-77
2023/12/16 02:58:48;;;;;;;1.33;1.30;;;;;;;4.73;100.00;101763.16;5093584;28;20198;-78
2023/12/16 03:01:14;;;;;;;0.90;0.90;;;;;;;4.69;100.00;101756.03;5092852;28;20311;-78
2023/12/16 03:03:41;;;;;;;1.63;1.53;;;;;;;4.74;100.00;101767.50;5104374;28;20213;-78
2023/12/16 03:06:08;;;;;;;0.80;0.80;;;;;;;4.79;100.00;101760.97;5105938;28;20206;-76
2023/12/16 03:08:35;;;;;;;0.70;0.70;;;;;;;4.77;100.00;101767.69;5106237;28;20213;-78
2023/12/16 03:11:03;;;;;;;1.10;1.10;;;;;;;4.64;100.00;101752.28;5105717;28;20194;-78
2023/12/16 03:13:30;;;;;;;0.80;0.80;;;;;;;4.67;100.00;101760.19;5096848;28;20286;-77
2023/12/16 03:15:59;;;;;;;1.57;1.50;;;;;;;4.62;100.00;101736.75;5093894;28;20225;-77
2023/12/16 03:18:25;;;;;;;1.80;1.67;;;;;;;4.68;100.00;101754.22;5094786;28;20209;-78
2023/12/16 03:20:53;;;;;;;1.10;1.10;;;;;;;4.83;100.00;101780.94;5094050;28;20580;-78
2023/12/16 03:23:19;;;;;;;0.73;0.73;;;;;;;4.79;100.00;101776.38;5073183;28;20191;-77
2023/12/16 03:25:46;;;;;;;1.03;1.03;;;;;;;4.85;100.00;101779.38;5100127;28;20210;-78
2023/12/16 03:28:13;;;;;;;1.13;1.13;;;;;;;4.76;100.00;101771.94;5090594;28;20626;-76
2023/12/16 03:30:41;;;;;;;0.70;0.70;;;;;;;4.89;100.00;101782.22;5095994;28;20633;-77
2023/12/16 03:33:10;;;;;;;1.20;1.10;;;;;;;4.80;100.00;101783.31;5093026;28;20728;-77
2023/12/16 03:35:37;;;;;;;0.90;0.90;;;;;;;4.39;100.00;101760.91;5093126;28;20662;-78
2023/12/16 03:38:04;;;;;;;1.20;1.10;;;;;;;4.62;100.00;101794.94;5098447;28;20204;-78
2023/12/16 03:40:30;;;;;;;0.90;0.90;;;;;;;4.61;100.00;101796.63;5096799;28;20585;-77
2023/12/16 03:42:57;;;;;;;1.17;1.17;;;;;;;4.63;100.00;101794.16;5096837;28;20205;-78
2023/12/16 03:45:24;;;;;;;0.70;0.70;;;;;;;4.59;100.00;101789.59;5093422;28;20284;-77
2023/12/16 03:47:51;;;;;;;1.23;1.23;;;;;;;4.62;100.00;101787.25;5093554;28;20194;-77
2023/12/16 03:50:19;;;;;;;0.73;0.73;;;;;;;4.71;100.00;101798.13;5088339;28;20277;-76
2023/12/16 03:52:46;;;;;;;0.60;0.60;;;;;;;4.63;100.00;101795.06;5091785;28;20249;-78
2023/12/16 03:55:13;;;;;;;0.67;0.67;;;;;;;4.55;100.00;101800.47;5093270;28;20202;-76
2023/12/16 03:57:40;;;;;;;0.90;0.90;;;;;;;4.63;100.00;101796.72;5093722;28;20665;-78
2023/12/16 04:00:09;;;;;;;0.83;0.83;;;;;;;4.55;100.00;101782.47;5090750;28;20202;-78
2023/12/16 04:02:36;;;;;;;0.87;0.87;;;;;;;4.42;100.00;101797.06;5092711;28;20678;-78
2023/12/16 04:05:02;;;;;;;1.10;1.10;;;;;;;4.55;100.00;101803.94;5093850;28;20194;-76
2023/12/16 04:07:31;;;;;;;0.80;0.80;;;;;;;4.58;100.00;101809.25;5092356;28;20276;-78
2023/12/16 04:09:57;;;;;;;0.87;0.87;;;;;;;4.59;100.00;101802.44;5092356;28;20186;-78
2023/12/16 04:12:24;;;;;;;1.47;1.47;;;;;;;4.41;100.00;101776.44;5092358;28;20277;-79
2023/12/16 04:14:51;;;;;;;0.80;0.80;;;;;;;4.48;100.00;101812.91;5092851;28;20724;-78
2023/12/16 04:17:18;;;;;;;0.80;0.80;;;;;;;4.53;100.00;101814.91;5090519;28;20223;-78
2023/12/16 04:19:51;;;;;;;1.67;1.67;;;;;;;4.58;100.00;101821.22;5080209;28;20260;-78
2023/12/16 04:22:18;;;;;;;0.80;0.80;;;;;;;4.47;100.00;101823.06;5091187;28;20289;-79
2023/12/16 04:24:47;;;;;;;0.90;0.90;;;;;;;4.54;100.00;101814.09;5091698;28;20241;-77
2023/12/16 04:27:14;;;;;;;1.30;1.20;;;;;;;4.58;100.00;101836.63;5092262;28;20606;-77
2023/12/16 04:29:40;;;;;;;0.83;0.83;;;;;;;4.50;100.00;101834.44;5092484;28;20206;-78
2023/12/16 04:32:07;;;;;;;3.30;1.20;;;;;;;4.45;100.00;101830.69;5092061;28;20198;-78
2023/12/16 04:34:34;;;;;;;2.07;2.00;;;;;;;4.62;100.00;101851.47;5063760;28;20643;-78
2023/12/16 04:37:01;;;;;;;1.97;1.87;;;;;;;4.44;100.00;101821.19;5079921;28;20680;-78
2023/12/16 04:39:27;;;;;;;1.00;1.00;;;;;;;4.53;100.00;101823.47;5091085;28;20210;-79
2023/12/16 04:41:55;;;;;;;1.07;1.07;;;;;;;4.54;100.00;101819.22;5091791;28;20194;-78
2023/12/16 04:44:22;;;;;;;0.80;0.80;;;;;;;4.79;100.00;101853.47;5092328;28;20252;-77
2023/12/16 04:46:49;;;;;;;0.80;0.80;;;;;;;4.84;100.00;101859.81;5092601;28;20636;-78
2023/12/16 04:49:16;;;;;;;1.17;1.17;;;;;;;4.62;100.00;101828.34;5092342;28;20198;-78
2023/12/16 04:51:42;;;;;;;1.20;1.20;;;;;;;4.83;100.00;101855.44;5054856;28;20214;-79
2023/12/16 04:54:09;;;;;;;0.70;0.70;;;;;;;4.78;100.00;101862.84;5091943;28;20221;-78
2023/12/16 04:56:36;;;;;;;0.83;0.83;;;;;;;4.75;100.00;101859.19;5056660;28;20205;-78
2023/12/16 04:59:04;;;;;;;1.10;1.10;;;;;;;4.81;100.00;101869.91;5095402;28;20201;-78
2023/12/16 05:01:31;;;;;;;0.80;0.80;;;;;;;4.92;100.00;101871.50;5112010;28;20594;-76
2023/12/16 05:03:58;;;;;;;1.00;1.00;;;;;;;4.97;100.00;101885.53;5092717;28;20197;-78
2023/12/16 05:06:24;;;;;;;1.00;1.00;;;;;;;4.93;100.00;101883.53;5087854;28;20206;-79
2023/12/16 05:08:51;;;;;;;1.93;1.83;;;;;;;5.02;100.00;101890.97;5090585;28;20628;-78
2023/12/16 05:11:18;;;;;;;1.40;1.40;;;;;;;5.06;100.00;101895.53;5091776;28;20206;-78
2023/12/16 05:13:45;;;;;;;2.00;1.17;;;;;;;5.04;100.00;101904.81;5089990;28;20226;-76
2023/12/16 05:16:18;;;;;;;1.57;1.47;;;;;;;5.09;100.00;101909.47;5091111;28;20674;-78
2023/12/16 05:18:45;;;;;;;0.70;0.70;;;;;;;5.06;100.00;101910.97;5091286;28;20226;-79
2023/12/16 05:21:12;;;;;;;0.80;0.80;;;;;;;4.87;100.00;101884.03;5091539;28;20716;-80
2023/12/16 05:23:38;;;;;;;1.43;1.43;;;;;;;4.90;100.00;101898.75;5085838;28;20770;-79
2023/12/16 05:26:05;;;;;;;0.70;0.70;;;;;;;4.71;100.00;101895.78;5091753;28;20284;-79
2023/12/16 05:28:32;;;;;;;0.90;0.90;;;;;;;4.77;100.00;101911.59;5091352;28;20682;-78
2023/12/16 05:30:59;;;;;;;0.80;0.80;;;;;;;4.77;100.00;101911.59;5091547;28;20591;-78
2023/12/16 05:33:27;;;;;;;0.70;0.70;;;;;;;4.70;100.00;101919.66;5055256;28;20229;-78
2023/12/16 05:35:54;;;;;;;1.73;1.67;;;;;;;4.70;100.00;101917.09;5091382;28;20199;-78
2023/12/16 05:38:21;;;;;;;0.80;0.80;;;;;;;4.75;100.00;101911.47;5086177;28;20207;-78
2023/12/16 05:40:48;;;;;;;0.60;0.60;;;;;;;5.07;100.00;101908.47;5092914;28;20716;-77
2023/12/16 05:43:14;;;;;;;1.00;1.00;;;;;;;4.91;100.00;101905.69;5090497;28;20202;-76
2023/12/16 05:45:41;;;;;;;1.40;1.40;;;;;;;4.91;100.00;101913.41;5091517;28;20274;-76
2023/12/16 05:48:08;;;;;;;1.20;1.17;;;;;;;4.59;100.00;101895.81;5090979;28;20194;-76
2023/12/16 05:50:36;;;;;;;0.67;0.67;;;;;;;4.78;100.00;101918.50;5091423;28;20197;-76
2023/12/16 05:53:05;;;;;;;0.70;0.70;;;;;;;4.57;100.00;101904.19;5090685;28;20202;-79
2023/12/16 05:55:33;;;;;;;0.90;0.90;;;;;;;4.78;100.00;101937.38;5086813;28;20631;-77
2023/12/16 05:58:00;;;;;;;2.70;2.50;;;;;;;4.70;100.00;101920.56;5096729;28;20194;-80
2023/12/16 06:00:27;;;;;;;1.57;1.47;;;;;;;4.57;100.00;101937.59;5099690;28;20211;-79
2023/12/16 06:02:53;;;;;;;0.73;0.73;;;;;;;4.55;100.00;101941.75;5100033;28;20194;-78
2023/12/16 06:05:20;;;;;;;1.57;1.40;;;;;;;4.65;100.00;101936.44;5090627;28;20201;-77
2023/12/16 06:07:48;;;;;;;1.10;1.10;;;;;;;4.85;100.00;101946.41;5091316;28;20201;-79
2023/12/16 06:10:15;;;;;;;1.07;1.07;;;;;;;4.61;100.00;101955.00;5086061;28;20219;-79
2023/12/16 06:12:42;;;;;;;1.37;1.37;;;;;;;4.76;100.00;101961.19;5087078;28;20236;-76
2023/12/16 06:15:09;;;;;;;0.70;0.70;;;;;;;4.80;100.00;101964.06;5081533;28;20226;-81
2023/12/16 06:17:36;;;;;;;1.70;1.43;;;;;;;4.77;100.00;101965.53;5047668;28;20202;-76
2023/12/16 06:20:04;;;;;;;0.60;0.60;;;;;;;4.10;100.00;101871.03;5090475;28;20206;-75
2023/12/16 06:22:31;;;;;;;4.70;2.43;;;;;;;4.68;100.00;101967.47;5073694;28;20614;-76
2023/12/16 06:24:59;;;;;;;0.80;0.80;;;;;;;5.06;100.00;101973.56;5085719;28;20207;-76
2023/12/16 06:27:26;;;;;;;0.80;0.80;;;;;;;4.93;100.00;101988.91;5076679;28;20214;-77
2023/12/16 06:29:53;;;;;;;0.60;0.60;;;;;;;4.92;100.00;101989.72;5070175;28;20202;-78
2023/12/16 06:32:20;;;;;;;0.80;0.80;;;;;;;4.83;100.00;102000.25;5037783;28;20262;-71
2023/12/16 06:34:47;;;;;;;1.00;1.00;;;;;;;4.82;100.00;102002.72;5047579;28;20229;-77
2023/12/16 06:37:14;;;;;;;0.70;0.70;;;;;;;4.49;100.00;101976.47;5085044;28;20269;-79
2023/12/16 06:39:40;;;;;;;2.67;2.47;;;;;;;4.46;100.00;102004.53;5091381;28;20224;-75
2023/12/16 06:42:08;;;;;;;0.80;0.80;;;;;;;4.32;100.00;101979.56;5071676;28;20616;-76
2023/12/16 06:44:36;;;;;;;1.10;1.10;;;;;;;4.45;100.00;102010.47;5089411;28;20202;-75
2023/12/16 06:47:03;;;;;;;0.63;0.63;;;;;;;4.56;100.00;102010.31;5089713;28;20200;-76
2023/12/16 06:49:30;;;;;;;1.20;1.20;;;;;;;4.62;100.00;102018.44;5093023;28;20203;-72
2023/12/16 06:51:57;;;;;;;0.80;0.80;;;;;;;4.60;100.00;102017.44;5093602;28;20210;-74
2023/12/16 06:54:23;;;;;;;1.80;1.10;;;;;;;4.05;100.00;101933.97;5093716;28;20230;-76
2023/12/16 06:56:50;;;;;;;0.70;0.70;;;;;;;4.52;100.00;102021.16;5094510;28;20209;-76
2023/12/16 06:59:18;;;;;;;0.90;0.90;;;;;;;4.56;100.00;102029.19;5094616;28;20209;-79
2023/12/16 07:01:45;;;;;;;0.80;0.80;;;;;;;4.39;100.00;102027.09;5094297;28;20205;-74
2023/12/16 07:04:12;;;;;;;1.03;1.03;;;;;;;4.47;100.00;102034.56;5087662;28;20194;-75
2023/12/16 07:06:38;;;;;;;0.80;0.80;;;;;;;4.49;100.00;102032.97;5096321;28;20202;-75
2023/12/16 07:09:06;;;;;;;0.80;0.80;;;;;;;4.39;100.00;102045.06;5089191;28;20199;-81
2023/12/16 07:11:34;;;;;;;0.80;0.80;;;;;;;4.30;100.00;102045.31;5056230;28;20297;-80
2023/12/16 07:14:01;;;;;;;1.40;1.40;;;;;;;4.43;100.00;102047.97;5085382;28;20262;-82
2023/12/16 07:16:30;;;;;;;0.70;0.70;;;;;;;4.38;100.00;102057.03;5087600;28;20698;-81
2023/12/16 07:18:57;;;;;;;0.80;0.80;;;;;;;4.45;100.00;102063.50;5090053;28;20632;-83
2023/12/16 07:21:24;;;;;;;0.80;0.80;;;;;;;3.89;100.00;101973.06;5093870;28;20201;-81
2023/12/16 07:23:52;;;;;;;0.77;0.77;;;;;;;4.46;100.00;102058.44;5093389;28;20209;-81
2023/12/16 07:26:19;;;;;;;1.30;1.30;;;;;;;4.46;100.00;102058.44;5095838;28;20211;-83
2023/12/16 07:28:45;;;;;;;0.60;0.60;;;;;;;4.47;100.00;102060.25;5094888;28;20210;-80
2023/12/16 07:31:12;;;;;;;0.90;0.90;;;;;;;4.50;100.00;102052.75;5082606;28;20205;-76
2023/12/16 07:33:40;;;;;;;0.97;0.97;;;;;;;4.45;100.00;102060.94;5078977;28;20333;-78
2023/12/16 07:36:08;;;;;;;1.47;1.47;;;;;;;4.39;100.00;102075.88;5084596;28;20201;-79
2023/12/16 07:38:35;;;;;;;0.90;0.90;;;;;;;4.30;100.00;102070.09;5042473;28;20205;-81
2023/12/16 07:41:02;;;;;;;0.70;0.70;;;;;;;4.36;100.00;102068.88;5092226;28;20206;-81
2023/12/16 07:43:28;;;;;;;0.80;0.80;;;;;;;4.39;100.00;102074.22;5093647;28;20256;-82
2023/12/16 07:45:55;;;;;;;0.90;0.90;;;;;;;4.24;100.00;102050.03;5089963;28;20217;-81
2023/12/16 07:48:22;;;;;;;2.33;1.30;;;;;;;4.41;100.00;102064.97;5055797;28;20206;-80
2023/12/16 07:50:53;;;;;;;0.73;0.73;;;;;;;4.35;100.00;102066.22;5090957;28;20209;-82
2023/12/16 07:53:21;;;;;;;0.60;0.60;;;;;;;4.42;100.00;102064.16;5087819;28;20198;-81
2023/12/16 07:55:48;;;;;;;1.10;1.10;;;;;;;4.45;100.00;102072.09;5088734;28;20222;-80
2023/12/16 07:58:15;;;;;;;1.10;1.10;;;;;;;4.32;100.00;102074.56;5058960;28;20206;-78
2023/12/16 08:00:41;;;;;;;3.07;2.90;;;;;;;4.20;100.00;102083.97;5090806;28;20633;-79
2023/12/16 08:03:08;;;;;;;0.90;0.90;;;;;;;4.22;100.00;102086.63;5105242;28;20658;-79
2023/12/16 08:05:35;;;;;;;0.63;0.63;;;;;;;4.21;100.00;102064.31;5070106;28;20232;-81
2023/12/16 08:08:03;;;;;;;0.80;0.80;;;;;;;4.57;100.00;102090.03;5111523;28;20203;-80
2023/12/16 08:10:30;;;;;;;1.00;1.00;;;;;;;4.50;100.00;102082.69;5056747;28;20198;-80
2023/12/16 08:12:57;;;;;;;0.60;0.60;;;;;;;4.35;100.00;102074.78;5093379;28;20236;-83
2023/12/16 08:15:24;;;;;;;0.80;0.80;;;;;;;4.40;100.00;102090.53;5091652;28;20222;-82
2023/12/16 08:17:51;;;;;;;0.77;0.77;;;;;;;3.92;100.00;102016.88;5095020;28;20213;-81
2023/12/16 08:20:17;;;;;;;0.90;0.90;;;;;;;4.38;100.00;102093.00;5094431;28;20206;-82
2023/12/16 08:22:44;;;;;;;0.80;0.80;;;;;;;4.36;100.00;102079.13;5060213;28;20218;-81
2023/12/16 08:25:12;;;;;;;0.90;0.90;;;;;;;4.46;100.00;102103.78;5046841;28;20202;-79
2023/12/16 08:27:41;;;;;;;1.00;1.00;;;;;;;4.58;100.00;102078.09;5094953;28;20654;-80
2023/12/16 08:30:08;;;;;;;1.20;1.20;;;;;;;4.75;100.00;102103.28;5095922;28;20199;-79
2023/12/16 08:32:35;;;;;;;0.70;0.70;;;;;;;4.49;100.00;102094.63;5089057;28;20653;-82
2023/12/16 08:35:03;;;;;;;1.47;1.47;;;;;;;4.64;100.00;102115.38;5091211;28;20706;-82
2023/12/16 08:37:29;;;;;;;1.10;1.10;;;;;;;4.82;100.00;102111.53;5093391;28;20243;-80
2023/12/16 08:39:56;;;;;;;1.20;1.20;;;;;;;4.73;100.00;102107.44;5091512;28;20206;-79
2023/12/16 08:42:24;;;;;;;1.30;1.30;;;;;;;4.85;100.00;102108.31;5057482;28;20255;-81
2023/12/16 08:44:51;;;;;;;1.00;1.00;;;;;;;4.81;100.00;102114.91;5091533;28;20206;-78
2023/12/16 08:47:18;;;;;;;0.60;0.60;;;;;;;4.53;100.00;102069.19;5092384;28;20205;-80
2023/12/16 08:49:45;;;;;;;1.00;1.00;;;;;;;4.66;100.00;102120.63;5093557;28;20828;-78
2023/12/16 08:52:12;;;;;;;0.80;0.80;;;;;;;4.78;100.00;102100.97;5093139;28;20198;-81
2023/12/16 08:54:40;;;;;;;0.80;0.80;;;;;;;3.30;100.00;101879.00;5041033;28;20226;-82
2023/12/16 08:57:07;;;;;;;0.80;0.80;;;;;;;4.79;100.00;102121.59;5091450;28;20201;-81
2023/12/16 08:59:35;;;;;;;0.80;0.80;;;;;;;4.59;100.00;102129.59;5097711;28;20627;-78
2023/12/16 09:02:03;;;;;;;1.20;1.20;;;;;;;4.40;100.00;102124.81;5105138;28;20651;-79
2023/12/16 09:04:29;;;;;;;0.60;0.60;;;;;;;4.56;100.00;102093.41;5102081;28;20252;-80
2023/12/16 09:06:56;;;;;;;0.87;0.87;;;;;;;4.91;100.00;102091.66;5056686;28;20723;-82
2023/12/16 09:09:23;;;;;;;0.80;0.80;;;;;;;4.72;100.00;102136.47;5092001;28;20273;-80
2023/12/16 09:11:50;;;;;;;0.80;0.80;;;;;;;4.58;100.00;102134.59;5056860;28;20259;-81
2023/12/16 09:14:17;;;;;;;0.93;0.93;;;;;;;4.54;100.00;102138.63;5101416;28;20758;-82
2023/12/16 09:16:45;;;;;;;0.80;0.80;;;;;;;4.40;100.00;102127.38;5057377;28;20209;-80
2023/12/16 09:19:12;;;;;;;0.93;0.93;;;;;;;4.34;100.00;102124.38;5090998;28;20593;-82
2023/12/16 09:21:39;;;;;;;0.87;0.87;;;;;;;4.39;100.00;102128.16;5091468;28;20206;-82
2023/12/16 09:24:06;;;;;;;1.00;1.00;;;;;;;4.18;100.00;102111.19;5091187;28;20271;-79
2023/12/16 09:26:33;;;;;;;1.00;1.00;;;;;;;4.41;100.00;102107.72;5086758;28;20264;-81
2023/12/16 09:29:00;;;;;;;0.80;0.80;;;;;;;4.32;100.00;102119.88;5089275;28;20205;-77
2023/12/16 09:31:27;;;;;;;0.77;0.77;;;;;;;4.23;100.00;102126.94;5092000;28;20335;-80
2023/12/16 09:33:55;;;;;;;0.80;0.80;;;;;;;4.21;100.00;102095.13;5091170;28;20236;-79
2023/12/16 09:36:26;;;;;;;1.10;1.10;;;;;;;4.10;100.00;102099.50;5093625;28;20321;-82
2023/12/16 09:38:53;;;;;;;0.77;0.77;;;;;;;4.29;100.00;102123.13;5093739;28;20585;-80
2023/12/16 09:41:22;;;;;;;0.80;0.80;;;;;;;4.48;100.00;102122.78;5093524;28;20202;-82
2023/12/16 09:43:52;;;;;;;0.90;0.90;;;;;;;4.66;100.00;102124.09;5092031;28;20225;-83
2023/12/16 09:46:20;;;;;;;3.50;1.47;;;;;;;4.39;100.00;102096.44;5088678;28;20255;-82
2023/12/16 09:48:47;;;;;;;0.70;0.70;;;;;;;4.78;100.00;102118.94;5093689;28;20205;-80
2023/12/16 09:51:15;;;;;;;0.80;0.80;;;;;;;4.81;100.00;102104.63;5096198;28;20263;-82
2023/12/16 09:53:42;;;;;;;0.90;0.90;;;;;;;4.79;100.00;102124.19;5051288;28;20213;-82
2023/12/16 09:56:10;;;;;;;0.70;0.70;;;;;;;4.87;100.00;102130.75;5089394;28;20252;-81
2023/12/16 09:58:41;;;;;;;0.90;0.90;;;;;;;4.79;100.00;102131.00;5089358;28;20603;-82
2023/12/16 10:01:09;;;;;;;0.80;0.80;;;;;;;4.80;100.00;102125.97;5070704;28;20226;-80
2023/12/16 10:03:37;;;;;;;0.87;0.87;;;;;;;4.89;100.00;102111.19;5083438;28;20690;-81
2023/12/16 10:06:05;;;;;;;0.87;0.87;;;;;;;4.95;100.00;102129.63;5093089;28;20213;-79
2023/12/16 10:08:33;;;;;;;0.70;0.70;;;;;;;5.04;100.00;102131.94;5088580;28;20213;-81
2023/12/16 10:11:02;;;;;;;0.90;0.90;;;;;;;5.21;100.00;102130.56;5090392;28;20221;-80
2023/12/16 10:13:30;;;;;;;1.00;1.00;;;;;;;4.93;100.00;102117.44;5098104;28;20204;-80
2023/12/16 10:15:56;;;;;;;0.90;0.90;;;;;;;4.84;100.00;102124.50;5093697;28;20693;-80
2023/12/16 10:18:23;;;;;;;1.23;1.23;;;;;;;5.34;100.00;102121.22;5111575;28;20197;-81
2023/12/16 10:20:50;;;;;;;2.57;2.47;;;;;;;4.96;100.00;102112.50;5089730;28;20276;-80
2023/12/16 10:23:17;;;;;;;0.80;0.80;;;;;;;4.86;100.00;102128.06;5094204;28;20327;-79
2023/12/16 10:25:46;;;;;;;0.80;0.80;;;;;;;5.17;100.00;102126.88;5092328;28;20631;-78
2023/12/16 10:28:13;;;;;;;0.80;0.80;;;;;;;5.10;100.00;102114.34;5057919;28;20208;-80
2023/12/16 10:30:40;;;;;;;0.80;0.80;;;;;;;5.23;100.00;102122.16;5095561;28;20202;-78
2023/12/16 10:33:09;;;;;;;1.03;1.03;;;;;;;5.38;100.00;102096.59;5108732;28;20225;-74
2023/12/16 10:35:37;;;;;;;0.77;0.77;;;;;;;5.24;100.00;102087.03;5114110;28;20247;-78
2023/12/16 10:38:04;;;;;;;1.87;1.17;;;;;;;5.27;100.00;102113.84;5110702;28;20202;-73
2023/12/16 10:40:33;;;;;;;0.80;0.80;;;;;;;5.19;100.00;102094.44;5103264;28;20206;-81
2023/12/16 10:43:02;;;;;;;0.70;0.70;;;;;;;5.50;100.00;102115.41;5100225;28;20655;-79
2023/12/16 10:45:29;;;;;;;0.70;0.70;;;;;;;5.60;100.00;102104.06;5097103;28;20198;-76
2023/12/16 10:47:56;;;;;;;0.97;0.97;;;;;;;5.55;100.00;102111.47;5101718;28;20209;-79
2023/12/16 10:50:26;;;;;;;9.73;2.50;;;;;;;5.39;100.00;102088.94;5117775;28;20214;-77
2023/12/16 10:52:54;;;;;;;1.17;1.17;;;;;;;5.45;100.00;102109.06;5043173;28;20301;-80
2023/12/16 10:55:35;;;;;;;0.70;0.70;;;;;;;5.37;100.00;102095.69;5067551;28;20306;-77
2023/12/16 10:58:16;;;;;;;3.10;2.93;;;;;;;5.45;100.00;102112.53;5093283;28;20190;-82
2023/12/16 11:00:49;;;;;;;18.97;7.90;;;;;;;5.44;100.00;102108.19;5094402;28;20194;-79
2023/12/16 11:03:24;;;;;;;10.63;5.23;;;;;;;5.35;100.00;102101.53;5095920;28;20198;-75
2023/12/16 11:05:56;;;;;;;6.20;2.17;;;;;;;5.26;100.00;102112.06;5095490;28;20197;-78
2023/12/16 11:08:24;;;;;;;1.10;1.10;;;;;;;5.25;100.00;102114.53;5063329;28;20566;-80
2023/12/16 11:10:51;;;;;;;1.07;1.07;;;;;;;5.11;100.00;102116.16;5065507;28;20206;-79
2023/12/16 11:13:19;;;;;;;1.17;0.93;;;;;;;5.17;100.00;102090.88;5097604;28;20198;-78
2023/12/16 11:15:52;;;;;;;1.00;0.97;;;;;;;5.53;100.00;102107.88;5100476;28;20229;-82
2023/12/16 11:18:22;;;;;;;0.70;0.70;;;;;;;5.61;100.00;102121.28;5085586;28;20203;-80
2023/12/16 11:20:52;;;;;;;0.70;0.70;;;;;;;5.87;100.00;102118.81;5086994;28;20206;-79
2023/12/16 11:23:19;;;;;;;1.00;1.00;;;;;;;5.60;100.00;102083.50;5094580;28;20202;-80
2023/12/16 11:25:48;;;;;;;0.77;0.77;;;;;;;5.68;100.00;102115.75;5091883;28;20209;-78